sensor_id;sensor_type;location;lat;lon;timestamp;pressure;altitude;pressure_sealevel;temperature;humidity
40730;BME280;26418;50.070;8.436;2023-07-20T00:04:56;99767.66;;;19.33;53.91
40730;BME280;26418;50.070;8.436;2023-07-20T00:10:24;99767.03;;;19.20;54.43
40730;BME280;26418;50.070;8.436;2023-07-20T00:12:55;99770.56;;;19.21;54.30
40730;BME280;26418;50.070;8.436;2023-07-20T00:15:21;99763.28;;;19.09;54.74
40730;BME280;26418;50.070;8.436;2023-07-20T00:18:05;99762.38;;;19.01;55.00
40730;BME280;26418;50.070;8.436;2023-07-20T00:20:49;99778.38;;;18.99;55.50
40730;BME280;26418;50.070;8.436;2023-07-20T00:23:35;99776.28;;;18.92;55.64
40730;BME280;26418;50.070;8.436;2023-07-20T00:26:03;99778.06;;;18.84;56.14
40730;BME280;26418;50.070;8.436;2023-07-20T00:28:29;99761.38;;;18.74;56.46
40730;BME280;26418;50.070;8.436;2023-07-20T00:31:10;99767.88;;;18.65;56.75
40730;BME280;26418;50.070;8.436;2023-07-20T00:33:38;99776.91;;;18.66;56.90
40730;BME280;26418;50.070;8.436;2023-07-20T00:36:10;99776.31;;;18.57;57.31
40730;BME280;26418;50.070;8.436;2023-07-20T00:38:51;99780.03;;;18.48;57.64
40730;BME280;26418;50.070;8.436;2023-07-20T00:41:16;99791.69;;;18.45;58.01
40730;BME280;26418;50.070;8.436;2023-07-20T00:44:01;99771.59;;;18.37;58.18
40730;BME280;26418;50.070;8.436;2023-07-20T00:46:32;99780.13;;;18.36;58.10
40730;BME280;26418;50.070;8.436;2023-07-20T00:49:01;99787.13;;;18.33;58.39
40730;BME280;26418;50.070;8.436;2023-07-20T00:51:27;99790.47;;;18.27;58.54
40730;BME280;26418;50.070;8.436;2023-07-20T00:53:55;99772.50;;;18.10;58.72
40730;BME280;26418;50.070;8.436;2023-07-20T00:56:24;99780.34;;;18.11;59.19
40730;BME280;26418;50.070;8.436;2023-07-20T00:58:50;99780.28;;;18.07;59.20
40730;BME280;26418;50.070;8.436;2023-07-20T01:01:16;99785.22;;;18.02;59.53
40730;BME280;26418;50.070;8.436;2023-07-20T01:03:45;99770.47;;;17.90;59.81
40730;BME280;26418;50.070;8.436;2023-07-20T01:06:41;99783.34;;;17.90;59.95
40730;BME280;26418;50.070;8.436;2023-07-20T01:09:19;99774.34;;;17.89;59.95
40730;BME280;26418;50.070;8.436;2023-07-20T01:12:11;99782.28;;;17.95;59.96
40730;BME280;26418;50.070;8.436;2023-07-20T01:14:38;99757.13;;;17.73;60.14
40730;BME280;26418;50.070;8.436;2023-07-20T01:17:04;99765.44;;;17.76;60.34
40730;BME280;26418;50.070;8.436;2023-07-20T01:19:29;99776.38;;;17.76;60.69
40730;BME280;26418;50.070;8.436;2023-07-20T01:22:32;99785.28;;;17.73;61.07
40730;BME280;26418;50.070;8.436;2023-07-20T01:33:24;99779.34;;;17.71;61.45
40730;BME280;26418;50.070;8.436;2023-07-20T01:35:58;99780.16;;;17.72;61.39
40730;BME280;26418;50.070;8.436;2023-07-20T01:38:25;99786.41;;;17.72;61.14
40730;BME280;26418;50.070;8.436;2023-07-20T01:40:52;99782.22;;;17.75;61.17
40730;BME280;26418;50.070;8.436;2023-07-20T01:43:18;99775.84;;;17.71;61.02
40730;BME280;26418;50.070;8.436;2023-07-20T01:45:44;99776.63;;;17.71;60.97
40730;BME280;26418;50.070;8.436;2023-07-20T01:48:09;99785.44;;;17.81;60.69
40730;BME280;26418;50.070;8.436;2023-07-20T01:50:35;99785.38;;;17.77;60.89
40730;BME280;26418;50.070;8.436;2023-07-20T01:53:01;99784.94;;;17.75;61.05
40730;BME280;26418;50.070;8.436;2023-07-20T01:55:27;99774.97;;;17.67;61.13
40730;BME280;26418;50.070;8.436;2023-07-20T01:57:56;99786.88;;;17.58;61.40
40730;BME280;26418;50.070;8.436;2023-07-20T02:00:22;99769.75;;;17.46;61.80
40730;BME280;26418;50.070;8.436;2023-07-20T02:02:52;99784.19;;;17.46;61.89
40730;BME280;26418;50.070;8.436;2023-07-20T02:05:18;99776.16;;;17.37;62.31
40730;BME280;26418;50.070;8.436;2023-07-20T02:07:43;99782.41;;;17.38;62.57
40730;BME280;26418;50.070;8.436;2023-07-20T02:10:09;99782.31;;;17.34;62.66
40730;BME280;26418;50.070;8.436;2023-07-20T02:12:35;99788.84;;;17.29;62.86
40730;BME280;26418;50.070;8.436;2023-07-20T02:15:02;99791.13;;;17.27;62.92
40730;BME280;26418;50.070;8.436;2023-07-20T02:17:28;99789.88;;;17.25;63.06
40730;BME280;26418;50.070;8.436;2023-07-20T02:19:54;99774.34;;;17.13;63.13
40730;BME280;26418;50.070;8.436;2023-07-20T02:22:20;99777.25;;;17.20;63.19
40730;BME280;26418;50.070;8.436;2023-07-20T02:24:46;99786.38;;;17.24;63.11
40730;BME280;26418;50.070;8.436;2023-07-20T02:27:12;99780.09;;;17.24;63.04
40730;BME280;26418;50.070;8.436;2023-07-20T02:29:40;99775.84;;;17.26;62.76
40730;BME280;26418;50.070;8.436;2023-07-20T02:32:06;99773.13;;;17.26;62.57
40730;BME280;26418;50.070;8.436;2023-07-20T02:34:31;99776.31;;;17.28;62.74
40730;BME280;26418;50.070;8.436;2023-07-20T02:36:57;99793.25;;;17.34;62.83
40730;BME280;26418;50.070;8.436;2023-07-20T02:39:24;99791.22;;;17.31;63.27
40730;BME280;26418;50.070;8.436;2023-07-20T02:41:49;99791.56;;;17.29;63.32
40730;BME280;26418;50.070;8.436;2023-07-20T02:44:15;99784.06;;;17.26;63.08
40730;BME280;26418;50.070;8.436;2023-07-20T02:46:41;99790.06;;;17.32;63.15
40730;BME280;26418;50.070;8.436;2023-07-20T02:49:07;99783.38;;;17.29;63.09
40730;BME280;26418;50.070;8.436;2023-07-20T02:51:32;99793.81;;;17.40;62.81
40730;BME280;26418;50.070;8.436;2023-07-20T02:53:59;99781.28;;;17.39;62.70
40730;BME280;26418;50.070;8.436;2023-07-20T02:56:24;99795.50;;;17.44;62.55
40730;BME280;26418;50.070;8.436;2023-07-20T02:58:50;99789.66;;;17.46;62.51
40730;BME280;26418;50.070;8.436;2023-07-20T03:01:16;99786.16;;;17.46;62.57
40730;BME280;26418;50.070;8.436;2023-07-20T03:03:44;99796.81;;;17.51;62.23
40730;BME280;26418;50.070;8.436;2023-07-20T03:06:16;99788.75;;;17.42;62.47
40730;BME280;26418;50.070;8.436;2023-07-20T03:08:42;99779.22;;;17.36;62.61
40730;BME280;26418;50.070;8.436;2023-07-20T03:11:16;99800.06;;;17.40;62.68
40730;BME280;26418;50.070;8.436;2023-07-20T03:13:43;99795.31;;;17.37;62.81
40730;BME280;26418;50.070;8.436;2023-07-20T03:16:14;99780.00;;;17.20;63.07
40730;BME280;26418;50.070;8.436;2023-07-20T03:18:43;99789.41;;;17.23;63.22
40730;BME280;26418;50.070;8.436;2023-07-20T03:21:12;99790.72;;;17.13;63.86
40730;BME280;26418;50.070;8.436;2023-07-20T03:23:38;99787.44;;;17.07;64.07
40730;BME280;26418;50.070;8.436;2023-07-20T03:26:04;99792.03;;;17.03;64.19
40730;BME280;26418;50.070;8.436;2023-07-20T03:28:30;99790.75;;;17.01;64.21
40730;BME280;26418;50.070;8.436;2023-07-20T03:31:01;99793.06;;;16.99;64.21
40730;BME280;26418;50.070;8.436;2023-07-20T03:33:45;99795.56;;;16.91;64.27
40730;BME280;26418;50.070;8.436;2023-07-20T03:36:14;99779.19;;;16.79;64.61
40730;BME280;26418;50.070;8.436;2023-07-20T03:38:39;99777.41;;;16.71;64.91
40730;BME280;26418;50.070;8.436;2023-07-20T03:41:05;99797.75;;;16.73;65.27
40730;BME280;26418;50.070;8.436;2023-07-20T03:43:30;99807.34;;;16.67;65.58
40730;BME280;26418;50.070;8.436;2023-07-20T03:45:56;99807.59;;;16.62;65.78
40730;BME280;26418;50.070;8.436;2023-07-20T03:48:23;99797.91;;;16.52;65.88
40730;BME280;26418;50.070;8.436;2023-07-20T03:50:50;99792.25;;;16.45;65.80
40730;BME280;26418;50.070;8.436;2023-07-20T03:53:16;99800.19;;;16.50;66.04
40730;BME280;26418;50.070;8.436;2023-07-20T03:55:45;99807.69;;;16.53;66.18
40730;BME280;26418;50.070;8.436;2023-07-20T03:58:11;99803.03;;;16.54;66.19
40730;BME280;26418;50.070;8.436;2023-07-20T04:00:37;99795.44;;;16.47;66.13
40730;BME280;26418;50.070;8.436;2023-07-20T04:03:03;99807.34;;;16.55;66.28
40730;BME280;26418;50.070;8.436;2023-07-20T04:05:28;99809.03;;;16.59;66.20
40730;BME280;26418;50.070;8.436;2023-07-20T04:07:54;99809.50;;;16.61;66.22
40730;BME280;26418;50.070;8.436;2023-07-20T04:10:19;99808.00;;;16.64;66.01
40730;BME280;26418;50.070;8.436;2023-07-20T04:12:45;99811.56;;;16.64;66.06
40730;BME280;26418;50.070;8.436;2023-07-20T04:15:13;99812.53;;;16.72;68.06
40730;BME280;26418;50.070;8.436;2023-07-20T04:17:38;99800.28;;;16.78;67.98
40730;BME280;26418;50.070;8.436;2023-07-20T04:20:05;99803.31;;;16.89;67.78
40730;BME280;26418;50.070;8.436;2023-07-20T04:22:31;99800.13;;;17.00;67.21
40730;BME280;26418;50.070;8.436;2023-07-20T04:24:57;99817.00;;;17.18;66.96
40730;BME280;26418;50.070;8.436;2023-07-20T04:27:22;99811.84;;;17.28;66.58
40730;BME280;26418;50.070;8.436;2023-07-20T04:29:48;99809.38;;;17.39;65.96
40730;BME280;26418;50.070;8.436;2023-07-20T04:32:14;99803.78;;;17.48;65.37
40730;BME280;26418;50.070;8.436;2023-07-20T04:34:39;99819.06;;;17.65;64.81
40730;BME280;26418;50.070;8.436;2023-07-20T04:37:05;99817.75;;;17.75;63.58
40730;BME280;26418;50.070;8.436;2023-07-20T04:39:30;99819.78;;;17.78;62.87
40730;BME280;26418;50.070;8.436;2023-07-20T04:41:56;99823.31;;;17.79;63.13
40730;BME280;26418;50.070;8.436;2023-07-20T04:44:22;99810.53;;;17.67;62.52
40730;BME280;26418;50.070;8.436;2023-07-20T04:46:48;99820.19;;;17.64;61.92
40730;BME280;26418;50.070;8.436;2023-07-20T04:49:13;99823.78;;;17.52;62.63
40730;BME280;26418;50.070;8.436;2023-07-20T04:51:39;99817.50;;;17.36;62.98
40730;BME280;26418;50.070;8.436;2023-07-20T04:54:05;99814.03;;;17.23;63.54
40730;BME280;26418;50.070;8.436;2023-07-20T04:56:31;99821.78;;;17.21;63.75
40730;BME280;26418;50.070;8.436;2023-07-20T04:58:56;99822.38;;;17.14;64.19
40730;BME280;26418;50.070;8.436;2023-07-20T05:01:23;99824.91;;;17.07;64.43
40730;BME280;26418;50.070;8.436;2023-07-20T05:03:49;99814.66;;;17.04;64.76
40730;BME280;26418;50.070;8.436;2023-07-20T05:06:15;99815.03;;;17.02;65.05
40730;BME280;26418;50.070;8.436;2023-07-20T05:08:41;99827.38;;;17.12;64.84
40730;BME280;26418;50.070;8.436;2023-07-20T05:11:06;99839.75;;;17.22;64.82
40730;BME280;26418;50.070;8.436;2023-07-20T05:13:35;99823.03;;;17.23;64.75
40730;BME280;26418;50.070;8.436;2023-07-20T05:16:01;99818.91;;;17.29;64.60
40730;BME280;26418;50.070;8.436;2023-07-20T05:18:27;99838.97;;;17.50;64.64
40730;BME280;26418;50.070;8.436;2023-07-20T05:20:52;99828.56;;;17.55;64.10
40730;BME280;26418;50.070;8.436;2023-07-20T05:23:20;99826.94;;;17.67;63.73
40730;BME280;26418;50.070;8.436;2023-07-20T05:25:46;99832.59;;;17.74;63.49
40730;BME280;26418;50.070;8.436;2023-07-20T05:28:12;99828.72;;;17.75;63.58
40730;BME280;26418;50.070;8.436;2023-07-20T05:30:37;99824.38;;;17.74;63.34
40730;BME280;26418;50.070;8.436;2023-07-20T05:33:03;99834.78;;;17.84;63.52
40730;BME280;26418;50.070;8.436;2023-07-20T05:35:30;99830.13;;;17.85;63.75
40730;BME280;26418;50.070;8.436;2023-07-20T05:37:55;99825.88;;;17.87;63.90
40730;BME280;26418;50.070;8.436;2023-07-20T05:40:21;99841.09;;;18.01;63.77
40730;BME280;26418;50.070;8.436;2023-07-20T05:42:47;99840.66;;;18.15;63.32
40730;BME280;26418;50.070;8.436;2023-07-20T05:45:17;99833.66;;;18.17;62.88
40730;BME280;26418;50.070;8.436;2023-07-20T05:47:43;99844.91;;;18.28;62.00
40730;BME280;26418;50.070;8.436;2023-07-20T05:50:09;99839.75;;;18.27;61.98
40730;BME280;26418;50.070;8.436;2023-07-20T05:52:35;99851.69;;;18.34;62.06
40730;BME280;26418;50.070;8.436;2023-07-20T05:55:01;99851.78;;;18.38;61.34
40730;BME280;26418;50.070;8.436;2023-07-20T05:57:26;99856.00;;;18.35;61.24
40730;BME280;26418;50.070;8.436;2023-07-20T05:59:52;99849.16;;;18.26;61.54
40730;BME280;26418;50.070;8.436;2023-07-20T06:02:17;99859.38;;;18.29;61.08
40730;BME280;26418;50.070;8.436;2023-07-20T06:04:43;99865.03;;;18.20;61.22
40730;BME280;26418;50.070;8.436;2023-07-20T06:07:09;99851.88;;;18.10;61.78
40730;BME280;26418;50.070;8.436;2023-07-20T06:09:35;99854.00;;;18.16;61.78
40730;BME280;26418;50.070;8.436;2023-07-20T06:12:00;99866.06;;;18.31;61.79
40730;BME280;26418;50.070;8.436;2023-07-20T06:14:26;99869.50;;;18.44;61.54
40730;BME280;26418;50.070;8.436;2023-07-20T06:16:52;99873.38;;;18.59;61.08
40730;BME280;26418;50.070;8.436;2023-07-20T06:19:17;99871.84;;;18.78;60.49
40730;BME280;26418;50.070;8.436;2023-07-20T06:21:43;99885.78;;;18.89;59.85
40730;BME280;26418;50.070;8.436;2023-07-20T06:24:08;99870.25;;;18.93;59.71
40730;BME280;26418;50.070;8.436;2023-07-20T06:26:34;99882.03;;;19.13;59.14
40730;BME280;26418;50.070;8.436;2023-07-20T06:29:06;99877.41;;;19.17;58.96
40730;BME280;26418;50.070;8.436;2023-07-20T06:31:32;99878.72;;;19.23;58.60
40730;BME280;26418;50.070;8.436;2023-07-20T06:33:58;99885.06;;;19.27;58.58
40730;BME280;26418;50.070;8.436;2023-07-20T06:36:24;99878.66;;;19.39;58.35
40730;BME280;26418;50.070;8.436;2023-07-20T06:38:51;99866.53;;;19.40;57.53
40730;BME280;26418;50.070;8.436;2023-07-20T06:41:17;99873.69;;;19.45;57.09
40730;BME280;26418;50.070;8.436;2023-07-20T06:43:43;99869.72;;;19.42;57.57
40730;BME280;26418;50.070;8.436;2023-07-20T06:46:08;99873.44;;;19.54;58.05
40730;BME280;26418;50.070;8.436;2023-07-20T06:48:34;99876.22;;;19.77;57.74
40730;BME280;26418;50.070;8.436;2023-07-20T06:51:00;99869.16;;;19.95;57.33
40730;BME280;26418;50.070;8.436;2023-07-20T06:53:25;99877.38;;;20.19;56.52
40730;BME280;26418;50.070;8.436;2023-07-20T06:55:51;99886.06;;;20.48;56.50
40730;BME280;26418;50.070;8.436;2023-07-20T06:58:16;99871.38;;;20.63;55.22
40730;BME280;26418;50.070;8.436;2023-07-20T07:00:43;99876.44;;;20.84;54.37
40730;BME280;26418;50.070;8.436;2023-07-20T07:03:09;99873.00;;;20.91;53.43
40730;BME280;26418;50.070;8.436;2023-07-20T07:05:38;99887.25;;;21.00;53.94
40730;BME280;26418;50.070;8.436;2023-07-20T07:08:04;99884.13;;;21.02;53.96
40730;BME280;26418;50.070;8.436;2023-07-20T07:10:30;99879.44;;;21.02;53.66
40730;BME280;26418;50.070;8.436;2023-07-20T07:12:56;99877.34;;;21.23;53.43
40730;BME280;26418;50.070;8.436;2023-07-20T07:15:21;99877.59;;;21.44;53.01
40730;BME280;26418;50.070;8.436;2023-07-20T07:17:47;99888.34;;;21.57;52.20
40730;BME280;26418;50.070;8.436;2023-07-20T07:20:13;99884.22;;;21.74;51.63
40730;BME280;26418;50.070;8.436;2023-07-20T07:22:38;99879.59;;;21.81;51.07
40730;BME280;26418;50.070;8.436;2023-07-20T07:25:04;99890.13;;;21.72;50.91
40730;BME280;26418;50.070;8.436;2023-07-20T07:27:30;99886.88;;;21.63;51.11
40730;BME280;26418;50.070;8.436;2023-07-20T07:29:55;99882.03;;;21.56;51.54
40730;BME280;26418;50.070;8.436;2023-07-20T07:32:21;99874.22;;;21.58;51.55
40730;BME280;26418;50.070;8.436;2023-07-20T07:34:47;99872.44;;;21.73;51.72
40730;BME280;26418;50.070;8.436;2023-07-20T07:37:14;99880.78;;;21.84;50.99
40730;BME280;26418;50.070;8.436;2023-07-20T07:39:39;99878.44;;;21.82;51.06
40730;BME280;26418;50.070;8.436;2023-07-20T07:42:05;99886.69;;;21.82;51.01
40730;BME280;26418;50.070;8.436;2023-07-20T07:44:31;99881.81;;;21.69;51.45
40730;BME280;26418;50.070;8.436;2023-07-20T07:46:57;99882.03;;;21.56;51.24
40730;BME280;26418;50.070;8.436;2023-07-20T07:49:22;99887.50;;;21.52;51.35
40730;BME280;26418;50.070;8.436;2023-07-20T07:51:48;99880.16;;;21.60;51.00
40730;BME280;26418;50.070;8.436;2023-07-20T07:54:14;99883.06;;;21.75;50.41
40730;BME280;26418;50.070;8.436;2023-07-20T07:56:39;99871.81;;;21.91;49.81
40730;BME280;26418;50.070;8.436;2023-07-20T07:59:06;99879.38;;;22.01;50.21
40730;BME280;26418;50.070;8.436;2023-07-20T08:01:32;99883.09;;;22.23;49.67
40730;BME280;26418;50.070;8.436;2023-07-20T08:03:57;99875.84;;;22.49;48.85
40730;BME280;26418;50.070;8.436;2023-07-20T08:06:23;99887.78;;;22.64;48.16
40730;BME280;26418;50.070;8.436;2023-07-20T08:08:49;99885.03;;;22.68;47.88
40730;BME280;26418;50.070;8.436;2023-07-20T08:11:15;99871.88;;;22.43;48.06
40730;BME280;26418;50.070;8.436;2023-07-20T08:13:43;99877.06;;;22.55;48.22
40730;BME280;26418;50.070;8.436;2023-07-20T08:16:09;99880.78;;;22.81;47.24
40730;BME280;26418;50.070;8.436;2023-07-20T08:18:34;99881.75;;;23.14;46.63
40730;BME280;26418;50.070;8.436;2023-07-20T08:21:00;99883.31;;;23.15;46.29
40730;BME280;26418;50.070;8.436;2023-07-20T08:23:25;99883.25;;;23.01;47.04
40730;BME280;26418;50.070;8.436;2023-07-20T08:25:53;99873.28;;;22.74;47.39
40730;BME280;26418;50.070;8.436;2023-07-20T08:28:18;99882.19;;;22.53;48.10
40730;BME280;26418;50.070;8.436;2023-07-20T08:30:46;99886.69;;;22.27;48.96
40730;BME280;26418;50.070;8.436;2023-07-20T08:33:19;99881.81;;;22.10;48.64
40730;BME280;26418;50.070;8.436;2023-07-20T08:35:45;99883.66;;;21.95;49.20
40730;BME280;26418;50.070;8.436;2023-07-20T08:38:11;99885.81;;;22.16;49.09
40730;BME280;26418;50.070;8.436;2023-07-20T08:40:42;99871.94;;;22.54;47.61
40730;BME280;26418;50.070;8.436;2023-07-20T08:43:10;99872.59;;;22.96;47.27
40730;BME280;26418;50.070;8.436;2023-07-20T08:45:36;99871.16;;;23.20;46.08
40730;BME280;26418;50.070;8.436;2023-07-20T08:48:05;99877.16;;;23.51;45.66
40730;BME280;26418;50.070;8.436;2023-07-20T08:50:31;99865.38;;;23.65;45.05
40730;BME280;26418;50.070;8.436;2023-07-20T08:52:58;99877.22;;;23.62;44.57
40730;BME280;26418;50.070;8.436;2023-07-20T08:55:26;99882.69;;;23.51;44.97
40730;BME280;26418;50.070;8.436;2023-07-20T08:57:58;99874.72;;;23.20;45.33
40730;BME280;26418;50.070;8.436;2023-07-20T09:00:25;99888.78;;;23.01;45.97
40730;BME280;26418;50.070;8.436;2023-07-20T09:02:52;99883.22;;;22.90;46.36
40730;BME280;26418;50.070;8.436;2023-07-20T09:05:19;99870.66;;;23.00;46.52
40730;BME280;26418;50.070;8.436;2023-07-20T09:07:45;99874.81;;;23.53;46.11
40730;BME280;26418;50.070;8.436;2023-07-20T09:10:11;99878.88;;;24.06;44.49
40730;BME280;26418;50.070;8.436;2023-07-20T09:12:40;99884.00;;;24.40;43.98
40730;BME280;26418;50.070;8.436;2023-07-20T09:15:06;99881.25;;;24.62;43.76
40730;BME280;26418;50.070;8.436;2023-07-20T09:17:32;99885.16;;;24.83;43.31
40730;BME280;26418;50.070;8.436;2023-07-20T09:19:58;99882.38;;;24.90;42.46
40730;BME280;26418;50.070;8.436;2023-07-20T09:22:32;99878.91;;;24.68;42.79
40730;BME280;26418;50.070;8.436;2023-07-20T09:24:58;99854.78;;;24.43;43.23
40730;BME280;26418;50.070;8.436;2023-07-20T09:27:38;99880.44;;;24.65;43.12
40730;BME280;26418;50.070;8.436;2023-07-20T09:30:05;99879.66;;;24.68;42.00
40730;BME280;26418;50.070;8.436;2023-07-20T09:32:38;99863.84;;;24.79;42.54
40730;BME280;26418;50.070;8.436;2023-07-20T09:35:05;99868.84;;;25.21;41.96
40730;BME280;26418;50.070;8.436;2023-07-20T09:37:33;99874.19;;;25.68;39.63
40730;BME280;26418;50.070;8.436;2023-07-20T09:39:59;99863.94;;;25.57;40.42
40730;BME280;26418;50.070;8.436;2023-07-20T09:42:25;99876.31;;;25.35;40.46
40730;BME280;26418;50.070;8.436;2023-07-20T09:44:52;99876.84;;;24.97;41.32
40730;BME280;26418;50.070;8.436;2023-07-20T09:47:24;99873.34;;;24.75;42.17
40730;BME280;26418;50.070;8.436;2023-07-20T09:49:58;99869.38;;;24.58;41.53
40730;BME280;26418;50.070;8.436;2023-07-20T09:52:29;99876.91;;;24.25;41.82
40730;BME280;26418;50.070;8.436;2023-07-20T09:54:55;99877.28;;;23.98;42.80
40730;BME280;26418;50.070;8.436;2023-07-20T09:57:21;99877.25;;;23.73;43.05
40730;BME280;26418;50.070;8.436;2023-07-20T09:59:46;99874.91;;;23.82;43.78
40730;BME280;26418;50.070;8.436;2023-07-20T10:02:25;99867.84;;;24.28;42.34
40730;BME280;26418;50.070;8.436;2023-07-20T10:04:57;99867.31;;;25.13;41.85
40730;BME280;26418;50.070;8.436;2023-07-20T10:07:27;99865.28;;;25.91;39.87
40730;BME280;26418;50.070;8.436;2023-07-20T10:09:55;99860.72;;;26.23;39.20
40730;BME280;26418;50.070;8.436;2023-07-20T10:12:22;99852.91;;;26.14;38.73
40730;BME280;26418;50.070;8.436;2023-07-20T10:15:00;99843.56;;;25.86;38.39
40730;BME280;26418;50.070;8.436;2023-07-20T10:17:30;99843.41;;;25.51;39.26
40730;BME280;26418;50.070;8.436;2023-07-20T10:19:58;99845.03;;;25.41;39.73
40730;BME280;26418;50.070;8.436;2023-07-20T10:22:26;99852.94;;;25.39;39.73
40730;BME280;26418;50.070;8.436;2023-07-20T10:24:53;99840.72;;;25.30;39.99
40730;BME280;26418;50.070;8.436;2023-07-20T10:27:24;99850.28;;;25.14;39.94
40730;BME280;26418;50.070;8.436;2023-07-20T10:29:51;99834.94;;;24.99;40.27
40730;BME280;26418;50.070;8.436;2023-07-20T10:32:19;99848.41;;;24.86;40.61
40730;BME280;26418;50.070;8.436;2023-07-20T10:34:56;99844.84;;;24.89;41.06
40730;BME280;26418;50.070;8.436;2023-07-20T10:37:47;99840.50;;;24.88;40.94
40730;BME280;26418;50.070;8.436;2023-07-20T10:42:58;99828.59;;;24.98;40.78
40730;BME280;26418;50.070;8.436;2023-07-20T10:45:34;99830.22;;;24.92;40.59
40730;BME280;26418;50.070;8.436;2023-07-20T10:48:03;99832.59;;;24.83;40.88
40730;BME280;26418;50.070;8.436;2023-07-20T10:50:30;99818.44;;;24.70;41.26
40730;BME280;26418;50.070;8.436;2023-07-20T10:53:10;99829.06;;;24.82;41.16
40730;BME280;26418;50.070;8.436;2023-07-20T10:55:36;99827.53;;;24.63;39.91
40730;BME280;26418;50.070;8.436;2023-07-20T10:58:12;99825.19;;;24.43;40.51
40730;BME280;26418;50.070;8.436;2023-07-20T11:01:00;99827.16;;;24.28;40.96
40730;BME280;26418;50.070;8.436;2023-07-20T11:03:28;99822.44;;;24.29;41.27
40730;BME280;26418;50.070;8.436;2023-07-20T11:05:56;99820.06;;;24.45;40.58
40730;BME280;26418;50.070;8.436;2023-07-20T11:08:41;99827.88;;;24.87;39.50
40730;BME280;26418;50.070;8.436;2023-07-20T11:11:27;99819.97;;;24.89;38.85
40730;BME280;26418;50.070;8.436;2023-07-20T11:14:04;99817.63;;;24.76;39.78
40730;BME280;26418;50.070;8.436;2023-07-20T11:16:43;99828.66;;;24.84;40.01
40730;BME280;26418;50.070;8.436;2023-07-20T11:21:45;99820.56;;;25.29;40.07
40730;BME280;26418;50.070;8.436;2023-07-20T11:24:11;99817.91;;;25.78;38.22
40730;BME280;26418;50.070;8.436;2023-07-20T11:26:50;99821.56;;;25.61;37.63
40730;BME280;26418;50.070;8.436;2023-07-20T11:29:17;99815.41;;;25.27;37.99
40730;BME280;26418;50.070;8.436;2023-07-20T11:31:45;99807.94;;;25.24;38.38
40730;BME280;26418;50.070;8.436;2023-07-20T11:34:12;99809.09;;;25.27;38.47
40730;BME280;26418;50.070;8.436;2023-07-20T11:36:43;99815.38;;;25.38;39.15
40730;BME280;26418;50.070;8.436;2023-07-20T11:39:09;99813.09;;;25.22;38.53
40730;BME280;26418;50.070;8.436;2023-07-20T11:41:35;99818.66;;;25.15;39.11
40730;BME280;26418;50.070;8.436;2023-07-20T11:44:02;99812.47;;;24.82;39.69
40730;BME280;26418;50.070;8.436;2023-07-20T11:46:30;99802.97;;;24.87;40.25
40730;BME280;26418;50.070;8.436;2023-07-20T11:48:59;99801.22;;;25.25;40.36
40730;BME280;26418;50.070;8.436;2023-07-20T11:51:27;99799.59;;;25.92;38.47
40730;BME280;26418;50.070;8.436;2023-07-20T11:53:53;99792.94;;;26.31;38.10
40730;BME280;26418;50.070;8.436;2023-07-20T11:56:18;99794.69;;;26.52;37.25
40730;BME280;26418;50.070;8.436;2023-07-20T11:58:44;99788.00;;;26.49;37.07
40730;BME280;26418;50.070;8.436;2023-07-20T12:01:12;99799.16;;;26.42;36.59
40730;BME280;26418;50.070;8.436;2023-07-20T12:03:38;99788.19;;;26.28;36.91
40730;BME280;26418;50.070;8.436;2023-07-20T12:06:08;99783.16;;;26.19;37.13
40730;BME280;26418;50.070;8.436;2023-07-20T12:08:34;99784.50;;;25.43;37.60
40730;BME280;26418;50.070;8.436;2023-07-20T12:10:59;99787.91;;;24.95;38.58
40730;BME280;26418;50.070;8.436;2023-07-20T12:13:47;99795.13;;;24.56;39.09
40730;BME280;26418;50.070;8.436;2023-07-20T12:16:16;99783.31;;;24.38;39.34
40730;BME280;26418;50.070;8.436;2023-07-20T12:18:45;99788.88;;;24.34;39.93
40730;BME280;26418;50.070;8.436;2023-07-20T12:21:11;99775.84;;;24.38;39.84
40730;BME280;26418;50.070;8.436;2023-07-20T12:23:40;99776.19;;;24.55;40.03
40730;BME280;26418;50.070;8.436;2023-07-20T12:26:10;99782.38;;;24.95;39.81
40730;BME280;26418;50.070;8.436;2023-07-20T12:28:39;99774.16;;;24.80;38.95
40730;BME280;26418;50.070;8.436;2023-07-20T12:31:08;99768.66;;;24.70;39.20
40730;BME280;26418;50.070;8.436;2023-07-20T12:33:35;99776.94;;;24.70;39.43
40730;BME280;26418;50.070;8.436;2023-07-20T12:36:01;99773.75;;;24.78;39.52
40730;BME280;26418;50.070;8.436;2023-07-20T12:38:27;99772.59;;;24.65;39.67
40730;BME280;26418;50.070;8.436;2023-07-20T12:40:54;99771.44;;;24.55;39.12
40730;BME280;26418;50.070;8.436;2023-07-20T12:43:21;99765.13;;;24.47;39.31
40730;BME280;26418;50.070;8.436;2023-07-20T12:45:46;99774.59;;;24.61;38.81
40730;BME280;26418;50.070;8.436;2023-07-20T12:48:12;99777.72;;;24.67;38.47
40730;BME280;26418;50.070;8.436;2023-07-20T12:50:38;99768.63;;;24.77;38.57
40730;BME280;26418;50.070;8.436;2023-07-20T12:53:03;99764.28;;;25.54;38.00
40730;BME280;26418;50.070;8.436;2023-07-20T12:55:29;99755.69;;;26.66;36.44
40730;BME280;26418;50.070;8.436;2023-07-20T12:57:55;99746.47;;;27.63;34.50
40730;BME280;26418;50.070;8.436;2023-07-20T13:00:21;99739.34;;;28.29;32.31
40730;BME280;26418;50.070;8.436;2023-07-20T13:02:50;99738.88;;;28.75;31.29
40730;BME280;26418;50.070;8.436;2023-07-20T13:05:15;99740.09;;;29.10;30.46
40730;BME280;26418;50.070;8.436;2023-07-20T13:07:41;99731.53;;;29.01;30.50
40730;BME280;26418;50.070;8.436;2023-07-20T13:10:08;99723.06;;;29.08;30.61
40730;BME280;26418;50.070;8.436;2023-07-20T13:12:35;99727.66;;;29.15;31.02
40730;BME280;26418;50.070;8.436;2023-07-20T13:15:02;99722.34;;;29.21;30.58
40730;BME280;26418;50.070;8.436;2023-07-20T13:17:31;99716.13;;;29.33;30.11
40730;BME280;26418;50.070;8.436;2023-07-20T13:19:58;99711.41;;;29.30;30.81
40730;BME280;26418;50.070;8.436;2023-07-20T13:22:24;99710.25;;;29.11;29.88
40730;BME280;26418;50.070;8.436;2023-07-20T13:24:49;99716.06;;;29.00;30.04